createdAt,value
2022-10-23T00:01:46.615Z,19.95
2022-10-23T00:04:19.184Z,23.85
2022-10-23T00:06:49.512Z,26.55
2022-10-23T00:09:21.823Z,21.70
2022-10-23T00:11:51.326Z,30.35
2022-10-23T00:14:22.970Z,24.33
2022-10-23T00:16:52.073Z,26.05
2022-10-23T00:19:20.381Z,22.73
2022-10-23T00:21:50.257Z,25.42
2022-10-23T00:24:18.755Z,25.08
2022-10-23T00:26:46.965Z,21.98
2022-10-23T00:29:15.156Z,22.42
2022-10-23T00:31:43.414Z,25.98
2022-10-23T00:34:11.837Z,23.27
2022-10-23T00:36:40.791Z,24.00
2022-10-23T00:39:10.460Z,25.88
2022-10-23T00:41:38.706Z,23.17
2022-10-23T00:44:13.217Z,22.10
2022-10-23T00:46:41.800Z,22.80
2022-10-23T00:51:48.523Z,22.83
2022-10-23T00:54:25.276Z,24.08
2022-10-23T00:56:57.801Z,21.40
2022-10-23T00:59:26.457Z,24.05
2022-10-23T01:01:54.963Z,23.33
2022-10-23T01:04:24.822Z,20.98
2022-10-23T01:07:03.816Z,23.38
2022-10-23T01:09:40.110Z,20.42
2022-10-23T01:12:16.633Z,27.30
2022-10-23T01:14:54.728Z,21.55
2022-10-23T01:17:32.097Z,24.05
2022-10-23T01:20:19.927Z,21.15
2022-10-23T01:23:19.294Z,24.30
2022-10-23T01:26:16.783Z,27.23
2022-10-23T01:28:51.491Z,22.38
2022-10-23T01:31:34.704Z,21.42
2022-10-23T01:34:11.116Z,24.65
2022-10-23T01:36:43.312Z,21.95
2022-10-23T01:39:17.288Z,21.77
2022-10-23T01:41:51.608Z,25.23
2022-10-23T01:44:25.654Z,22.33
2022-10-23T01:46:55.440Z,25.48
2022-10-23T01:49:24.985Z,28.38
2022-10-23T01:51:58.970Z,25.20
2022-10-23T01:54:32.136Z,28.70
2022-10-23T01:57:01.807Z,23.42
2022-10-23T01:59:37.908Z,23.02
2022-10-23T02:02:07.873Z,22.30
2022-10-23T02:04:43.484Z,22.60
2022-10-23T02:07:11.691Z,21.55
2022-10-23T02:09:40.354Z,24.48
2022-10-23T02:12:13.333Z,22.80
2022-10-23T02:14:54.701Z,23.20
2022-10-23T02:17:28.465Z,24.25
2022-10-23T02:20:04.346Z,23.08
2022-10-23T02:22:39.394Z,22.13
2022-10-23T02:25:13.847Z,23.77
2022-10-23T02:27:47.105Z,22.02
2022-10-23T02:30:19.773Z,22.35
2022-10-23T02:32:50.589Z,21.30
2022-10-23T02:35:22.224Z,24.48
2022-10-23T02:37:55.230Z,24.90
2022-10-23T02:40:25.391Z,21.95
2022-10-23T02:42:59.636Z,23.17
2022-10-23T02:45:33.874Z,20.38
2022-10-23T02:48:08.502Z,23.63
2022-10-23T02:50:43.840Z,20.33
2022-10-23T02:53:19.659Z,22.02
2022-10-23T02:56:00.913Z,21.92
2022-10-23T02:58:37.482Z,20.00
2022-10-23T03:01:10.970Z,23.35
2022-10-23T03:03:43.214Z,17.98
2022-10-23T03:06:11.566Z,20.50
2022-10-23T03:08:44.855Z,19.75
2022-10-23T03:11:13.001Z,22.10
2022-10-23T03:13:41.339Z,21.10
2022-10-23T03:16:11.317Z,20.23
2022-10-23T03:18:39.767Z,20.48
2022-10-23T03:21:08.179Z,18.10
2022-10-23T03:23:36.492Z,18.63
2022-10-23T03:26:04.735Z,17.88
2022-10-23T03:28:34.184Z,19.10
2022-10-23T03:31:02.685Z,20.95
2022-10-23T03:33:33.610Z,17.73
2022-10-23T03:36:01.824Z,18.27
2022-10-23T03:38:30.529Z,21.48
2022-10-23T03:40:58.761Z,21.13
2022-10-23T03:43:27.005Z,19.42
2022-10-23T03:45:56.793Z,20.42
2022-10-23T03:48:25.725Z,16.77
2022-10-23T03:50:55.511Z,14.13
2022-10-23T03:53:23.635Z,17.48
2022-10-23T03:55:51.746Z,14.55
2022-10-23T03:58:19.887Z,17.70
2022-10-23T04:00:48.065Z,18.52
2022-10-23T04:03:16.331Z,18.92
2022-10-23T04:05:44.584Z,18.65
2022-10-23T04:08:17.635Z,17.90
2022-10-23T04:10:48.374Z,16.40
2022-10-23T04:13:16.520Z,16.50
2022-10-23T04:15:50.408Z,20.75
2022-10-23T04:18:18.701Z,17.27
2022-10-23T04:20:49.216Z,18.05
2022-10-23T04:23:19.188Z,15.85
2022-10-23T04:28:21.056Z,17.58
2022-10-23T04:30:49.290Z,14.55
2022-10-23T04:33:17.559Z,19.88
2022-10-23T04:35:45.820Z,14.98
2022-10-23T04:38:14.218Z,15.07
2022-10-23T04:40:43.779Z,14.60
2022-10-23T04:43:14.157Z,17.10
2022-10-23T04:45:42.530Z,16.45
2022-10-23T04:48:10.686Z,19.08
2022-10-23T04:50:38.906Z,20.65
2022-10-23T04:53:07.124Z,16.77
2022-10-23T04:55:35.339Z,14.70
2022-10-23T04:58:04.860Z,15.20
2022-10-23T05:00:33.173Z,18.08
2022-10-23T05:03:01.450Z,14.85
2022-10-23T05:05:29.638Z,16.23
2022-10-23T05:07:57.932Z,14.50
2022-10-23T05:10:26.186Z,17.08
2022-10-23T05:12:54.365Z,17.48
2022-10-23T05:15:24.040Z,18.58
2022-10-23T05:17:57.980Z,15.90
2022-10-23T05:20:31.618Z,18.83
2022-10-23T05:23:01.877Z,13.32
2022-10-23T05:25:31.714Z,16.23
2022-10-23T05:27:59.856Z,15.57
2022-10-23T05:30:29.568Z,16.15
2022-10-23T05:32:57.778Z,20.17
2022-10-23T05:35:26.156Z,18.17
2022-10-23T05:37:56.153Z,18.35
2022-10-23T05:40:24.978Z,18.20
2022-10-23T05:42:53.155Z,15.40
2022-10-23T05:45:21.432Z,16.67
2022-10-23T05:47:51.287Z,18.80
2022-10-23T05:50:19.601Z,14.85
2022-10-23T05:52:49.685Z,16.95
2022-10-23T05:55:18.350Z,18.42
2022-10-23T05:57:46.601Z,19.10
2022-10-23T06:00:15.302Z,18.85
2022-10-23T06:02:43.529Z,16.52
2022-10-23T06:05:13.262Z,19.10
2022-10-23T06:07:42.254Z,16.52
2022-10-23T06:10:20.489Z,16.52
2022-10-23T06:12:48.915Z,19.77
2022-10-23T06:15:17.521Z,15.38
2022-10-23T06:17:45.904Z,15.80
2022-10-23T06:20:25.341Z,16.08
2022-10-23T06:23:00.136Z,18.83
2022-10-23T06:25:58.128Z,17.60
2022-10-23T06:28:27.759Z,17.13
2022-10-23T06:31:03.003Z,21.02
2022-10-23T06:33:33.102Z,18.15
2022-10-23T06:39:10.703Z,17.48
2022-10-23T06:42:13.199Z,15.52
2022-10-23T06:51:23.153Z,17.40
2022-10-23T06:54:18.241Z,15.57
2022-10-23T06:56:49.714Z,14.77
2022-10-23T06:59:19.783Z,16.70
2022-10-23T07:01:49.219Z,19.42
2022-10-23T07:04:26.361Z,16.38
2022-10-23T07:07:08.942Z,17.38
2022-10-23T07:09:40.326Z,15.43
2022-10-23T07:12:18.360Z,16.85
2022-10-23T07:15:04.044Z,15.07
2022-10-23T07:17:41.117Z,15.43
2022-10-23T07:23:10.668Z,17.25
2022-10-23T07:25:42.806Z,18.02
2022-10-23T07:31:10.815Z,14.27
2022-10-23T07:36:49.641Z,16.70
2022-10-23T07:39:43.305Z,19.40
2022-10-23T07:49:37.257Z,16.35
2022-10-23T08:35:38.675Z,10.75
2022-10-23T08:38:24.884Z,12.05
2022-10-23T08:40:56.733Z,13.48
2022-10-23T08:47:26.775Z,13.95
2022-10-23T08:50:01.854Z,12.05
2022-10-23T08:52:39.002Z,12.50
2022-10-23T08:55:27.243Z,11.88
2022-10-23T08:58:07.959Z,14.77
2022-10-23T09:00:37.638Z,14.13
2022-10-23T09:03:42.731Z,11.90
2022-10-23T09:07:47.367Z,10.18
2022-10-23T09:10:59.268Z,14.57
2022-10-23T09:14:26.424Z,10.57
2022-10-23T09:17:24.985Z,14.23
2022-10-23T09:24:59.014Z,11.38
2022-10-23T09:28:05.316Z,11.43
2022-10-23T09:30:39.953Z,13.57
2022-10-23T09:33:20.836Z,13.68
2022-10-23T09:36:07.948Z,12.25
2022-10-23T09:38:42.213Z,12.23
2022-10-23T09:41:21.109Z,10.93
2022-10-23T09:44:03.001Z,11.40
2022-10-23T09:49:40.041Z,9.82
2022-10-23T09:54:06.080Z,12.73
2022-10-23T10:00:39.864Z,10.27
2022-10-23T10:15:54.988Z,11.65
2022-10-23T10:22:50.678Z,9.80
2022-10-23T10:25:36.316Z,13.02
2022-10-23T10:28:42.781Z,10.30
2022-10-23T10:31:31.725Z,9.98
2022-10-23T10:34:21.569Z,9.82
2022-10-23T10:37:01.123Z,12.68
2022-10-23T10:44:42.707Z,9.25
2022-10-23T10:54:50.229Z,9.07
2022-10-23T10:58:16.845Z,8.80
2022-10-23T11:00:47.991Z,9.13
2022-10-23T11:03:49.186Z,8.43
2022-10-23T11:06:52.035Z,11.57
2022-10-23T11:09:41.354Z,12.30
2022-10-23T11:12:30.666Z,9.27
2022-10-23T11:15:30.951Z,7.55
2022-10-23T11:18:44.831Z,8.23
2022-10-23T11:22:19.994Z,10.65
2022-10-23T11:25:50.944Z,8.98
2022-10-23T11:29:07.995Z,13.45
2022-10-23T11:32:13.131Z,8.38
2022-10-23T11:43:14.693Z,8.50
2022-10-23T12:09:45.467Z,9.60
2022-10-23T12:12:56.013Z,6.43
2022-10-23T12:15:58.434Z,8.07
2022-10-23T12:19:04.556Z,8.25
2022-10-23T12:36:20.190Z,7.47
2022-10-23T12:39:05.148Z,10.05
2022-10-23T12:45:02.737Z,7.25
2022-10-23T12:48:08.960Z,11.23
2022-10-23T12:50:54.131Z,6.93
2022-10-23T13:00:28.905Z,8.43
2022-10-23T13:03:02.381Z,7.45
2022-10-23T13:05:42.371Z,7.28
2022-10-23T13:08:52.037Z,7.18
2022-10-23T13:11:50.967Z,10.40
2022-10-23T13:14:34.916Z,11.20
2022-10-23T13:17:22.618Z,8.10
2022-10-23T13:19:53.121Z,7.95
2022-10-23T13:22:29.823Z,11.00
2022-10-23T13:25:02.575Z,8.82
2022-10-23T13:27:37.966Z,7.53
2022-10-23T13:30:26.881Z,7.82
2022-10-23T13:33:01.098Z,8.77
2022-10-23T13:35:33.675Z,7.95
2022-10-23T13:38:11.907Z,7.68
2022-10-23T13:40:43.113Z,7.82
2022-10-23T13:43:36.220Z,8.20
2022-10-23T13:46:04.767Z,8.68
2022-10-23T13:48:45.090Z,6.57
2022-10-23T13:51:23.443Z,7.82
2022-10-23T13:53:52.752Z,8.35
2022-10-23T13:56:25.605Z,7.38
2022-10-23T13:58:54.360Z,8.40
2022-10-23T14:01:27.741Z,10.00
2022-10-23T14:03:58.897Z,6.65
2022-10-23T14:06:40.462Z,8.40
2022-10-23T14:09:13.157Z,9.60
2022-10-23T14:11:48.025Z,7.55
2022-10-23T14:14:16.484Z,6.85
2022-10-23T14:16:51.395Z,6.72
2022-10-23T14:22:08.081Z,7.72
2022-10-23T14:24:38.589Z,6.60
2022-10-23T14:27:10.296Z,12.15
2022-10-23T14:29:41.832Z,9.60
2022-10-23T14:32:12.739Z,10.30
2022-10-23T14:34:45.931Z,7.95
2022-10-23T14:37:14.281Z,11.75
2022-10-23T14:39:49.732Z,6.05
2022-10-23T14:42:24.034Z,8.07
2022-10-23T14:44:52.759Z,8.48
2022-10-23T14:47:21.487Z,8.25
2022-10-23T14:49:53.542Z,7.53
2022-10-23T14:52:22.022Z,9.00
2022-10-23T14:54:55.598Z,7.43
2022-10-23T14:57:25.337Z,9.32
2022-10-23T14:59:53.867Z,7.22
2022-10-23T15:02:22.784Z,6.97
2022-10-23T15:04:52.405Z,7.70
2022-10-23T15:07:20.948Z,9.32
2022-10-23T15:09:52.021Z,11.50
2022-10-23T15:12:22.212Z,8.05
2022-10-23T15:14:53.532Z,11.40
2022-10-23T15:17:21.676Z,8.00
2022-10-23T15:19:58.412Z,7.68
2022-10-23T15:22:32.044Z,7.80
2022-10-23T15:25:07.257Z,10.80
2022-10-23T15:30:18.129Z,9.45
2022-10-23T15:32:48.181Z,6.15
2022-10-23T15:35:20.236Z,9.80
2022-10-23T15:44:30.580Z,7.38
2022-10-23T15:47:48.722Z,6.03
2022-10-23T15:53:07.969Z,10.07
2022-10-23T15:55:36.259Z,7.68
2022-10-23T15:58:08.047Z,9.35
2022-10-23T16:03:22.179Z,6.35
2022-10-23T16:05:52.162Z,8.13
2022-10-23T16:08:20.603Z,6.95
2022-10-23T16:11:03.969Z,9.52
2022-10-23T16:13:39.928Z,7.40
2022-10-23T16:16:34.130Z,6.88
2022-10-23T16:22:29.198Z,6.93
2022-10-23T16:24:57.585Z,8.63
2022-10-23T16:27:25.874Z,8.05
2022-10-23T16:29:54.304Z,9.40
2022-10-23T16:32:22.534Z,12.63
2022-10-23T16:34:56.696Z,6.60
2022-10-23T16:37:25.354Z,5.75
2022-10-23T16:39:55.788Z,8.15
2022-10-23T16:42:24.084Z,9.85
2022-10-23T16:44:52.867Z,9.38
2022-10-23T16:47:21.158Z,6.38
2022-10-23T16:49:49.407Z,9.15
2022-10-23T16:52:19.243Z,11.30
2022-10-23T16:54:47.669Z,11.20
2022-10-23T16:57:15.847Z,8.93
2022-10-23T16:59:45.491Z,9.70
2022-10-23T17:02:15.217Z,12.13
2022-10-23T17:04:44.675Z,9.38
2022-10-23T17:07:13.681Z,11.30
2022-10-23T17:09:47.858Z,9.27
2022-10-23T17:12:17.212Z,8.63
2022-10-23T17:14:46.106Z,10.13
2022-10-23T17:17:14.940Z,8.40
2022-10-23T17:19:47.362Z,7.95
2022-10-23T17:22:17.197Z,9.25
2022-10-23T17:24:56.667Z,10.15
2022-10-23T17:27:28.977Z,12.50
2022-10-23T17:30:01.381Z,8.90
2022-10-23T17:32:30.165Z,7.15
2022-10-23T17:34:58.485Z,8.82
2022-10-23T17:37:37.370Z,9.90
2022-10-23T17:40:08.631Z,7.65
2022-10-23T17:42:40.672Z,6.35
2022-10-23T17:45:13.874Z,10.63
2022-10-23T17:47:45.032Z,8.73
2022-10-23T17:50:14.056Z,9.20
2022-10-23T17:52:46.224Z,9.02
2022-10-23T17:55:16.154Z,7.55
2022-10-23T17:57:45.303Z,7.47
2022-10-23T18:00:23.402Z,8.75
2022-10-23T18:02:52.449Z,8.02
2022-10-23T18:05:21.977Z,10.98
2022-10-23T18:07:59.993Z,11.15
2022-10-23T18:10:36.343Z,9.75
2022-10-23T18:13:04.609Z,9.57
2022-10-23T18:15:36.153Z,9.48
2022-10-23T18:18:07.798Z,7.68
2022-10-23T18:20:41.025Z,8.90
2022-10-23T18:23:09.535Z,11.93
2022-10-23T18:26:22.430Z,9.23
2022-10-23T18:28:54.189Z,9.65
2022-10-23T18:31:25.967Z,11.57
2022-10-23T18:33:58.068Z,8.35
2022-10-23T18:50:45.868Z,14.00
2022-10-23T18:53:14.068Z,16.83
2022-10-23T18:58:18.070Z,13.63
2022-10-23T19:00:47.060Z,9.88
2022-10-23T19:03:16.548Z,11.20
2022-10-23T19:05:47.236Z,12.23
2022-10-23T19:08:15.510Z,10.57
2022-10-23T19:10:45.104Z,13.10
2022-10-23T19:13:13.276Z,10.00
2022-10-23T19:15:41.871Z,11.10
2022-10-23T19:18:10.854Z,11.30
2022-10-23T19:20:39.389Z,9.32
2022-10-23T19:23:11.730Z,12.00
2022-10-23T19:25:47.802Z,8.30
2022-10-23T19:28:16.906Z,9.38
2022-10-23T19:30:45.077Z,9.93
2022-10-23T19:33:13.268Z,9.02
2022-10-23T19:35:41.814Z,8.98
2022-10-23T19:38:11.277Z,7.45
2022-10-23T19:40:39.616Z,8.38
2022-10-23T19:43:07.782Z,11.20
2022-10-23T19:45:35.980Z,7.60
2022-10-23T19:48:04.188Z,8.52
2022-10-23T19:50:32.340Z,7.28
2022-10-23T19:53:00.556Z,7.40
2022-10-23T19:55:30.132Z,8.88
2022-10-23T19:57:58.311Z,10.02
2022-10-23T20:00:28.103Z,10.13
2022-10-23T20:02:56.266Z,11.07
2022-10-23T20:05:24.653Z,8.48
2022-10-23T20:07:52.996Z,6.90
2022-10-23T20:10:21.309Z,5.75
2022-10-23T20:12:56.524Z,7.75
2022-10-23T20:15:30.610Z,9.20
2022-10-23T20:17:59.652Z,6.22
2022-10-23T20:20:27.832Z,6.25
2022-10-23T20:22:56.483Z,4.97
2022-10-23T20:25:24.797Z,6.25
2022-10-23T20:27:54.355Z,7.30
2022-10-23T20:30:22.567Z,6.22
2022-10-23T20:32:51.580Z,7.28
2022-10-23T20:35:19.797Z,4.95
2022-10-23T20:37:48.010Z,5.82
2022-10-23T20:40:16.395Z,5.22
2022-10-23T20:42:44.565Z,7.88
2022-10-23T20:45:14.158Z,6.18
2022-10-23T20:47:42.747Z,5.60
2022-10-23T20:50:11.545Z,6.40
2022-10-23T20:52:39.694Z,7.65
2022-10-23T20:55:08.827Z,5.93
2022-10-23T20:57:37.057Z,5.35
2022-10-23T21:00:07.690Z,6.85
2022-10-23T21:02:38.033Z,7.40
2022-10-23T21:05:10.444Z,6.30
2022-10-23T21:07:38.978Z,5.75
2022-10-23T21:10:09.420Z,6.65
2022-10-23T21:12:37.675Z,5.97
2022-10-23T21:15:07.584Z,4.68
2022-10-23T21:17:42.310Z,8.52
2022-10-23T21:20:12.359Z,6.50
2022-10-23T21:22:41.201Z,5.57
2022-10-23T21:25:11.070Z,5.70
2022-10-23T21:27:39.305Z,5.32
2022-10-23T21:30:10.339Z,6.40
2022-10-23T21:32:49.629Z,7.60
2022-10-23T21:35:19.624Z,5.85
2022-10-23T21:37:50.112Z,5.95
2022-10-23T21:40:18.773Z,5.20
2022-10-23T21:42:47.192Z,7.32
2022-10-23T21:45:16.897Z,8.23
2022-10-23T21:47:47.080Z,9.05
2022-10-23T21:50:16.264Z,6.88
2022-10-23T21:52:48.564Z,5.20
2022-10-23T21:55:22.057Z,5.82
2022-10-23T21:57:51.820Z,7.00
2022-10-23T22:00:20.744Z,5.90
2022-10-23T22:02:52.850Z,7.65
2022-10-23T22:05:26.372Z,7.88
2022-10-23T22:07:59.705Z,7.97
2022-10-23T22:10:28.263Z,8.23
2022-10-23T22:13:04.223Z,7.93
2022-10-23T22:15:32.846Z,6.63
2022-10-23T22:18:04.037Z,9.27
2022-10-23T22:20:32.958Z,7.82
2022-10-23T22:23:08.065Z,8.73
2022-10-23T22:25:40.282Z,9.32
2022-10-23T22:28:09.110Z,12.13
2022-10-23T22:30:38.209Z,9.25
2022-10-23T22:33:07.747Z,9.13
2022-10-23T22:35:36.128Z,8.13
2022-10-23T22:38:04.728Z,7.43
2022-10-23T22:40:33.272Z,11.77
2022-10-23T22:43:01.650Z,8.93
2022-10-23T22:45:29.773Z,7.65
2022-10-23T22:47:59.085Z,8.18
2022-10-23T22:50:29.030Z,10.07
2022-10-23T22:52:57.327Z,8.65
2022-10-23T22:55:25.602Z,8.23
2022-10-23T22:57:53.875Z,8.15
2022-10-23T23:00:22.246Z,10.48
2022-10-23T23:02:50.534Z,10.15
2022-10-23T23:05:19.434Z,9.20
2022-10-23T23:07:49.233Z,10.40
2022-10-23T23:10:17.646Z,10.80
2022-10-23T23:12:45.881Z,11.65
2022-10-23T23:15:14.141Z,10.23
2022-10-23T23:17:42.759Z,6.95
2022-10-23T23:20:11.912Z,10.75
2022-10-23T23:22:40.366Z,12.23
2022-10-23T23:25:11.741Z,11.35
2022-10-23T23:27:40.786Z,12.05
2022-10-23T23:30:11.300Z,9.55
2022-10-23T23:32:39.500Z,9.82
2022-10-23T23:35:08.434Z,9.40
2022-10-23T23:37:36.606Z,16.73
2022-10-23T23:40:05.834Z,13.88
2022-10-23T23:42:35.341Z,12.63
2022-10-23T23:45:14.277Z,9.65
2022-10-23T23:47:43.628Z,8.90
2022-10-23T23:50:12.949Z,14.75
2022-10-23T23:52:41.384Z,12.05
2022-10-23T23:55:10.287Z,9.90
2022-10-23T23:57:39.955Z,11.82
